createdAt,value
2018-06-24T08:39:44.532Z,21.10
2018-06-24T08:44:48.518Z,21.20
2018-06-24T08:49:52.503Z,21.10
2018-06-24T08:54:56.495Z,21.30
2018-06-24T09:00:00.518Z,21.40
2018-06-24T09:05:04.536Z,21.90
2018-06-24T09:10:08.528Z,22.40
2018-06-24T09:20:16.124Z,22.50
2018-06-24T09:25:20.090Z,23.30
2018-06-24T09:30:24.095Z,23.90
2018-06-24T09:35:28.120Z,23.30
2018-06-24T09:40:32.119Z,23.60
2018-06-24T09:45:36.227Z,23.90
2018-06-24T09:50:40.230Z,23.90
2018-06-24T09:55:44.232Z,23.80
2018-06-24T10:00:48.214Z,24.50
2018-06-24T10:05:52.204Z,25.20
2018-06-24T10:10:56.190Z,25.40
2018-06-24T10:16:00.178Z,26.50
2018-06-24T10:21:04.950Z,26.60
2018-06-24T10:26:08.932Z,26.40
2018-06-24T10:31:12.930Z,26.00
2018-06-24T10:41:21.522Z,25.90
2018-06-24T10:46:25.488Z,26.40
2018-06-24T10:51:29.475Z,26.80
2018-06-24T10:56:33.448Z,26.10
2018-06-24T11:01:37.468Z,25.70
2018-06-24T11:06:41.434Z,25.20
2018-06-24T11:11:45.414Z,25.20
2018-06-24T11:21:53.868Z,25.00
2018-06-24T11:32:01.463Z,25.10
2018-06-24T11:37:05.702Z,25.00
2018-06-24T11:42:09.651Z,25.10
2018-06-24T11:47:13.640Z,25.50
2018-06-24T11:57:21.186Z,25.20
2018-06-24T12:02:25.156Z,25.30
2018-06-24T12:07:29.374Z,25.50
2018-06-24T12:12:33.782Z,25.60
2018-06-24T12:17:37.788Z,25.40
2018-06-24T12:27:45.384Z,25.10
2018-06-24T12:32:49.368Z,24.60
2018-06-24T12:42:57.010Z,23.90
2018-06-24T12:48:01.959Z,23.70
2018-06-24T12:58:09.547Z,23.40
2018-06-24T13:03:13.528Z,23.10
2018-06-24T13:13:21.072Z,22.70
2018-06-24T13:18:25.080Z,22.60
2018-06-24T13:23:29.046Z,22.60
2018-06-24T13:28:33.015Z,22.40
2018-06-24T13:33:36.963Z,22.40
2018-06-24T13:38:41.062Z,22.60
2018-06-24T13:43:45.054Z,22.60
2018-06-24T13:48:49.056Z,22.60
2018-06-24T13:53:53.040Z,22.70
2018-06-24T13:58:57.034Z,22.70
2018-06-24T14:04:01.056Z,22.30
2018-06-24T14:14:11.266Z,22.00
2018-06-24T14:19:15.251Z,21.80
2018-06-24T14:24:19.206Z,21.60
2018-06-24T14:29:23.206Z,21.60
2018-06-24T14:34:27.237Z,21.30
2018-06-24T14:39:31.239Z,21.10
2018-06-24T14:44:35.239Z,20.80
2018-06-24T14:49:39.260Z,20.90
2018-06-24T14:54:43.244Z,21.10
2018-06-24T14:59:47.266Z,21.40
2018-06-24T15:04:51.259Z,21.90
2018-06-24T15:09:55.282Z,21.90
2018-06-24T15:20:02.927Z,21.20
2018-06-24T15:30:10.579Z,20.80
2018-06-24T15:35:14.568Z,20.60
2018-06-24T15:40:18.539Z,20.50
2018-06-24T15:45:22.547Z,20.60
2018-06-24T15:55:30.160Z,20.40
2018-06-24T16:00:34.135Z,20.40
2018-06-24T16:05:38.109Z,20.20
2018-06-24T16:10:42.086Z,20.20
2018-06-24T16:15:46.064Z,20.20
2018-06-24T16:20:50.130Z,20.40
2018-06-24T16:25:54.019Z,20.40
2018-06-24T16:30:58.027Z,20.40
2018-06-24T16:36:02.023Z,20.10
2018-06-24T16:41:06.244Z,20.00
2018-06-24T16:46:10.215Z,20.00
2018-06-24T16:51:14.195Z,20.10
2018-06-24T16:56:18.179Z,20.00
2018-06-24T17:01:22.140Z,20.00
2018-06-24T17:06:26.334Z,19.90
2018-06-24T17:11:30.335Z,20.00
2018-06-24T17:16:34.967Z,19.90
2018-06-24T17:21:38.996Z,19.70
2018-06-24T17:26:42.996Z,19.70
2018-06-24T17:31:46.991Z,19.80
2018-06-24T17:41:54.671Z,19.80
2018-06-24T17:46:58.676Z,19.70
2018-06-24T17:52:02.679Z,19.70
2018-06-24T17:57:06.671Z,19.50
2018-06-24T18:02:10.700Z,19.30
2018-06-24T18:07:14.699Z,19.30
2018-06-24T18:12:18.834Z,19.30
2018-06-24T18:17:22.800Z,19.30
2018-06-24T18:22:26.851Z,19.20
2018-06-24T18:27:30.804Z,19.20
2018-06-24T18:32:34.763Z,19.10
2018-06-24T18:37:38.776Z,18.80
2018-06-24T18:42:42.804Z,18.60
2018-06-24T18:47:46.791Z,18.50
2018-06-24T18:52:50.799Z,18.40
2018-06-24T19:02:58.529Z,18.20
2018-06-24T19:08:02.464Z,18.10
2018-06-24T19:13:06.487Z,18.00
2018-06-24T19:23:14.143Z,18.10
2018-06-24T19:28:18.131Z,18.00
2018-06-24T19:33:22.123Z,18.00
2018-06-24T19:38:26.131Z,17.90
2018-06-24T19:43:30.127Z,17.90
2018-06-24T19:48:34.129Z,17.90
2018-06-24T19:53:38.125Z,17.90
2018-06-24T19:58:42.135Z,17.90
2018-06-24T20:03:46.524Z,17.90
2018-06-24T20:08:50.532Z,17.90
2018-06-24T20:13:54.539Z,17.80
2018-06-24T20:18:58.589Z,17.80
2018-06-24T20:24:02.603Z,17.70
2018-06-24T20:29:06.636Z,17.60
2018-06-24T20:34:10.667Z,17.60
2018-06-24T20:39:14.692Z,17.70
2018-06-24T20:44:18.871Z,17.60
2018-06-24T20:49:22.852Z,17.40
2018-06-24T20:54:26.825Z,17.40
2018-06-24T20:59:30.806Z,17.20
2018-06-24T21:04:34.846Z,17.20
2018-06-24T21:14:42.459Z,17.10
2018-06-24T21:19:46.461Z,17.10
2018-06-24T21:24:51.211Z,17.10
2018-06-24T21:29:55.217Z,17.10
2018-06-24T21:34:59.217Z,17.10
2018-06-24T21:45:07.165Z,17.10
2018-06-24T21:50:11.155Z,17.10
2018-06-24T21:55:15.151Z,17.10
2018-06-24T22:00:19.155Z,17.10
2018-06-24T22:05:23.157Z,17.10
2018-06-24T22:15:30.806Z,17.00
2018-06-24T22:25:38.450Z,17.10
2018-06-24T22:40:49.827Z,17.20
2018-06-24T22:45:54.883Z,17.30
2018-06-24T22:50:58.826Z,17.30
2018-06-24T22:56:03.070Z,17.20
2018-06-24T23:01:07.148Z,17.20
2018-06-24T23:06:11.055Z,17.30
2018-06-24T23:16:20.767Z,17.00
2018-06-24T23:21:24.734Z,16.90
2018-06-24T23:26:28.734Z,16.90
2018-06-24T23:31:32.739Z,16.80
2018-06-24T23:36:36.724Z,16.90
2018-06-24T23:41:40.714Z,16.80
2018-06-24T23:46:44.766Z,16.80
2018-06-24T23:51:48.759Z,16.80
